createdAt,value
2019-03-30T00:01:38.176Z,22.20
2019-03-30T00:04:05.832Z,20.40
2019-03-30T00:06:33.528Z,20.10
2019-03-30T00:09:01.317Z,18.30
2019-03-30T00:11:29.008Z,21.20
2019-03-30T00:13:56.710Z,21.03
2019-03-30T00:16:24.360Z,21.33
2019-03-30T00:18:52.054Z,19.80
2019-03-30T00:21:19.740Z,20.63
2019-03-30T00:23:47.564Z,22.73
2019-03-30T00:26:15.230Z,20.70
2019-03-30T00:28:42.972Z,21.70
2019-03-30T00:31:10.736Z,21.07
2019-03-30T00:33:38.536Z,23.00
2019-03-30T00:36:06.337Z,20.00
2019-03-30T00:38:34.362Z,21.23
2019-03-30T00:41:02.052Z,21.73
2019-03-30T00:43:29.736Z,17.80
2019-03-30T00:45:57.392Z,21.23
2019-03-30T00:48:25.188Z,21.80
2019-03-30T00:50:53.003Z,20.07
2019-03-30T00:53:21.031Z,21.07
2019-03-30T00:55:48.683Z,19.33
2019-03-30T00:58:16.477Z,19.93
2019-03-30T01:00:44.220Z,20.90
2019-03-30T01:03:11.905Z,19.77
2019-03-30T01:05:39.896Z,22.40
2019-03-30T01:08:07.773Z,21.17
2019-03-30T01:10:35.529Z,24.37
2019-03-30T01:13:03.285Z,22.57
2019-03-30T01:15:31.048Z,23.20
2019-03-30T01:17:58.827Z,22.57
2019-03-30T01:20:26.592Z,21.67
2019-03-30T01:22:54.347Z,22.37
2019-03-30T01:25:22.104Z,23.83
2019-03-30T01:27:49.910Z,22.10
2019-03-30T01:30:23.428Z,22.10
2019-03-30T01:32:48.273Z,23.67
2019-03-30T01:35:16.457Z,21.93
2019-03-30T01:37:44.226Z,24.27
2019-03-30T01:40:12.000Z,21.87
2019-03-30T01:42:39.784Z,20.13
2019-03-30T01:45:08.226Z,21.73
2019-03-30T01:47:36.767Z,23.83
2019-03-30T01:50:16.509Z,19.57
2019-03-30T01:52:35.165Z,21.67
2019-03-30T01:55:03.067Z,20.40
2019-03-30T01:57:30.724Z,20.27
2019-03-30T01:59:58.429Z,20.13
2019-03-30T02:02:26.263Z,20.47
2019-03-30T02:04:53.961Z,20.37
2019-03-30T02:07:22.036Z,19.83
2019-03-30T02:09:49.800Z,19.37
2019-03-30T02:12:17.538Z,19.53
2019-03-30T02:14:45.190Z,21.40
2019-03-30T02:17:12.959Z,22.90
2019-03-30T02:19:40.736Z,21.97
2019-03-30T02:22:08.524Z,19.67
2019-03-30T02:24:36.291Z,20.30
2019-03-30T02:27:04.060Z,20.27
2019-03-30T02:29:32.009Z,22.73
2019-03-30T02:31:59.798Z,19.57
2019-03-30T02:34:27.464Z,21.07
2019-03-30T02:36:55.129Z,20.80
2019-03-30T02:39:22.947Z,20.17
2019-03-30T02:41:50.626Z,19.80
2019-03-30T02:44:18.392Z,22.43
2019-03-30T02:46:46.105Z,21.57
2019-03-30T02:49:14.186Z,19.90
2019-03-30T02:51:41.875Z,22.23
2019-03-30T02:54:09.821Z,22.80
2019-03-30T02:56:37.544Z,23.47
2019-03-30T02:59:05.319Z,20.40
2019-03-30T03:01:33.067Z,24.27
2019-03-30T03:04:00.857Z,24.50
2019-03-30T03:06:28.652Z,25.00
2019-03-30T03:08:56.630Z,23.07
2019-03-30T03:11:24.389Z,24.60
2019-03-30T03:13:52.154Z,24.13
2019-03-30T03:16:19.925Z,22.60
2019-03-30T03:18:47.749Z,24.73
2019-03-30T03:21:15.520Z,24.20
2019-03-30T03:23:43.294Z,24.10
2019-03-30T03:26:11.156Z,23.97
2019-03-30T03:28:38.917Z,25.17
2019-03-30T03:31:06.585Z,21.97
2019-03-30T03:33:34.276Z,23.10
2019-03-30T03:36:02.189Z,22.20
2019-03-30T03:38:29.854Z,20.70
2019-03-30T03:40:57.597Z,21.03
2019-03-30T03:43:25.393Z,21.20
2019-03-30T03:45:53.144Z,21.50
2019-03-30T03:48:20.946Z,19.73
2019-03-30T03:50:59.188Z,22.10
2019-03-30T03:53:26.977Z,21.27
2019-03-30T03:55:57.033Z,21.57
2019-03-30T03:58:27.643Z,21.77
2019-03-30T04:00:57.257Z,22.20
2019-03-30T04:03:27.981Z,20.70
2019-03-30T04:05:58.051Z,21.27
2019-03-30T04:08:27.413Z,20.20
2019-03-30T04:10:57.231Z,20.60
2019-03-30T04:13:27.484Z,23.40
2019-03-30T04:15:55.234Z,20.30
2019-03-30T04:18:23.651Z,24.63
2019-03-30T04:20:51.414Z,20.30
2019-03-30T04:23:19.135Z,21.60
2019-03-30T04:25:46.953Z,22.53
2019-03-30T04:28:14.676Z,21.63
2019-03-30T04:30:42.444Z,22.47
2019-03-30T04:33:10.483Z,21.70
2019-03-30T04:35:38.384Z,22.40
2019-03-30T04:38:06.176Z,21.97
2019-03-30T04:40:33.923Z,21.73
2019-03-30T04:43:01.591Z,22.03
2019-03-30T04:45:29.364Z,23.20
2019-03-30T04:47:57.150Z,21.37
2019-03-30T04:50:24.903Z,24.50
2019-03-30T04:52:52.667Z,22.57
2019-03-30T04:55:20.332Z,24.30
2019-03-30T04:57:49.812Z,22.10
2019-03-30T05:00:17.710Z,21.63
2019-03-30T05:02:45.412Z,21.43
2019-03-30T05:05:13.175Z,26.53
2019-03-30T05:07:41.123Z,21.43
2019-03-30T05:10:08.985Z,23.17
2019-03-30T05:12:36.630Z,21.00
2019-03-30T05:15:04.446Z,21.80
2019-03-30T05:17:46.418Z,23.60
2019-03-30T05:20:01.690Z,24.20
2019-03-30T05:22:29.376Z,22.93
2019-03-30T05:24:57.141Z,30.80
2019-03-30T05:27:24.827Z,30.73
2019-03-30T05:29:52.487Z,29.73
2019-03-30T05:32:20.203Z,29.20
2019-03-30T05:34:47.974Z,32.23
2019-03-30T05:37:15.691Z,31.90
2019-03-30T05:39:43.335Z,35.80
2019-03-30T05:42:11.079Z,33.27
2019-03-30T05:44:38.868Z,33.13
2019-03-30T05:47:06.470Z,34.23
2019-03-30T05:49:34.417Z,40.27
2019-03-30T05:52:02.236Z,33.60
2019-03-30T05:54:30.001Z,31.80
2019-03-30T05:56:57.796Z,30.77
2019-03-30T05:59:25.774Z,28.73
2019-03-30T06:01:53.785Z,29.63
2019-03-30T06:04:21.595Z,28.33
2019-03-30T06:06:49.404Z,26.33
2019-03-30T06:09:17.196Z,28.00
2019-03-30T06:11:44.989Z,28.17
2019-03-30T06:14:12.841Z,29.70
2019-03-30T06:16:40.504Z,27.80
2019-03-30T06:19:08.233Z,27.00
2019-03-30T06:21:35.879Z,27.40
2019-03-30T06:24:03.653Z,24.83
2019-03-30T06:26:31.339Z,27.07
2019-03-30T06:28:59.112Z,25.97
2019-03-30T06:31:26.883Z,24.63
2019-03-30T06:33:54.634Z,26.17
2019-03-30T06:36:22.422Z,27.10
2019-03-30T06:38:50.097Z,27.93
2019-03-30T06:41:17.769Z,28.17
2019-03-30T06:43:45.572Z,28.40
2019-03-30T06:46:13.820Z,27.23
2019-03-30T06:48:41.776Z,25.83
2019-03-30T06:51:09.593Z,25.83
2019-03-30T06:53:37.278Z,28.33
2019-03-30T06:56:05.021Z,28.27
2019-03-30T06:58:32.824Z,26.77
2019-03-30T07:01:00.551Z,26.70
2019-03-30T07:03:28.380Z,27.67
2019-03-30T07:05:57.198Z,27.50
2019-03-30T07:08:26.927Z,27.17
2019-03-30T07:10:54.871Z,27.00
2019-03-30T07:13:23.151Z,27.37
2019-03-30T07:15:50.917Z,27.40
2019-03-30T07:18:18.918Z,27.97
2019-03-30T07:20:46.804Z,27.10
2019-03-30T07:23:14.898Z,27.60
2019-03-30T07:25:42.707Z,24.17
2019-03-30T07:28:10.480Z,26.10
2019-03-30T07:30:38.508Z,24.60
2019-03-30T07:33:06.261Z,24.63
2019-03-30T07:35:34.067Z,25.07
2019-03-30T07:38:01.811Z,23.00
2019-03-30T07:40:29.445Z,22.63
2019-03-30T07:42:57.305Z,24.10
2019-03-30T07:45:25.049Z,25.10
2019-03-30T07:47:53.164Z,22.70
2019-03-30T07:50:20.909Z,23.83
2019-03-30T07:52:48.800Z,24.87
2019-03-30T07:55:16.552Z,24.37
2019-03-30T07:57:44.392Z,25.00
2019-03-30T08:00:12.377Z,25.30
2019-03-30T08:02:41.467Z,25.70
2019-03-30T08:05:09.580Z,26.40
2019-03-30T08:07:38.303Z,25.63
2019-03-30T08:10:06.095Z,25.57
2019-03-30T08:12:33.941Z,22.97
2019-03-30T08:15:01.730Z,24.10
2019-03-30T08:17:29.489Z,23.33
2019-03-30T08:19:57.182Z,23.80
2019-03-30T08:22:24.962Z,23.80
2019-03-30T08:24:52.752Z,24.60
2019-03-30T08:27:20.407Z,26.00
2019-03-30T08:29:48.224Z,24.97
2019-03-30T08:32:16.006Z,24.30
2019-03-30T08:34:43.639Z,23.87
2019-03-30T08:37:11.441Z,24.53
2019-03-30T08:39:39.476Z,24.03
2019-03-30T08:42:07.433Z,24.07
2019-03-30T08:44:35.392Z,21.60
2019-03-30T08:47:03.245Z,23.47
2019-03-30T08:49:31.021Z,22.10
2019-03-30T08:51:58.804Z,23.30
2019-03-30T08:54:26.469Z,21.67
2019-03-30T08:56:54.287Z,23.43
2019-03-30T08:59:22.519Z,23.50
2019-03-30T09:01:50.287Z,22.20
2019-03-30T09:04:18.052Z,24.30
2019-03-30T09:06:45.745Z,21.57
2019-03-30T09:09:13.482Z,20.60
2019-03-30T09:11:43.430Z,22.27
2019-03-30T09:14:11.289Z,22.60
2019-03-30T09:16:39.331Z,22.13
2019-03-30T09:19:07.124Z,20.90
2019-03-30T09:21:34.817Z,25.80
2019-03-30T09:24:09.422Z,22.77
2019-03-30T09:26:32.499Z,21.70
2019-03-30T09:29:00.250Z,23.30
2019-03-30T09:31:28.177Z,20.83
2019-03-30T09:33:57.186Z,23.67
2019-03-30T09:36:24.967Z,19.40
2019-03-30T09:38:52.696Z,18.20
2019-03-30T09:41:20.689Z,17.20
2019-03-30T09:43:48.399Z,16.40
2019-03-30T09:46:16.160Z,16.30
2019-03-30T09:48:44.180Z,14.37
2019-03-30T09:51:12.288Z,16.00
2019-03-30T09:53:40.027Z,13.13
2019-03-30T09:56:07.839Z,12.90
2019-03-30T09:58:35.707Z,14.40
2019-03-30T10:01:03.643Z,12.80
2019-03-30T10:03:31.676Z,11.70
2019-03-30T10:05:59.445Z,13.57
2019-03-30T10:08:27.124Z,13.53
2019-03-30T10:10:54.903Z,13.70
2019-03-30T10:13:22.675Z,11.40
2019-03-30T10:15:57.421Z,8.20
2019-03-30T10:18:25.241Z,9.20
2019-03-30T10:20:52.871Z,9.13
2019-03-30T10:23:21.872Z,8.77
2019-03-30T10:25:49.714Z,10.13
2019-03-30T10:28:23.159Z,10.43
2019-03-30T10:30:52.824Z,8.77
2019-03-30T10:33:20.564Z,8.40
2019-03-30T10:35:48.243Z,6.33
2019-03-30T10:38:16.051Z,5.83
2019-03-30T10:40:44.347Z,7.70
2019-03-30T10:43:18.728Z,6.20
2019-03-30T10:45:46.563Z,6.63
2019-03-30T10:48:14.375Z,7.10
2019-03-30T10:50:42.137Z,6.70
2019-03-30T10:53:10.104Z,7.23
2019-03-30T10:55:38.067Z,8.47
2019-03-30T10:58:05.743Z,7.30
2019-03-30T11:00:40.818Z,7.70
2019-03-30T11:03:08.736Z,6.80
2019-03-30T11:05:36.554Z,42.60
2019-03-30T11:08:05.312Z,8.20
2019-03-30T11:10:33.036Z,9.77
2019-03-30T11:13:01.657Z,7.60
2019-03-30T11:15:29.382Z,7.47
2019-03-30T11:17:58.383Z,8.87
2019-03-30T11:20:26.188Z,8.00
2019-03-30T11:22:53.931Z,8.60
2019-03-30T11:25:21.678Z,9.23
2019-03-30T11:27:50.044Z,8.17
2019-03-30T11:30:17.831Z,7.30
2019-03-30T11:32:45.610Z,8.30
2019-03-30T11:35:13.798Z,7.70
2019-03-30T11:37:41.570Z,8.03
2019-03-30T11:40:09.322Z,8.13
2019-03-30T11:42:37.351Z,8.43
2019-03-30T11:45:05.672Z,7.80
2019-03-30T11:47:33.553Z,10.50
2019-03-30T11:50:01.342Z,8.60
2019-03-30T11:52:29.216Z,9.83
2019-03-30T11:54:57.074Z,8.30
2019-03-30T11:57:24.823Z,8.57
2019-03-30T11:59:52.499Z,9.27
2019-03-30T12:02:27.725Z,9.60
2019-03-30T12:04:50.168Z,8.93
2019-03-30T12:07:18.063Z,10.13
2019-03-30T12:09:48.551Z,8.30
2019-03-30T12:12:16.620Z,10.70
2019-03-30T12:14:45.433Z,9.43
2019-03-30T12:17:14.194Z,10.60
2019-03-30T12:19:42.147Z,12.90
2019-03-30T12:22:09.892Z,13.37
2019-03-30T12:24:38.836Z,11.27
2019-03-30T12:27:06.547Z,12.63
2019-03-30T12:29:34.731Z,12.10
2019-03-30T12:32:02.507Z,13.77
2019-03-30T12:34:30.283Z,11.77
2019-03-30T12:37:04.248Z,12.70
2019-03-30T12:39:32.045Z,13.33
2019-03-30T12:41:59.716Z,12.67
2019-03-30T12:44:27.492Z,12.00
2019-03-30T12:46:55.308Z,12.10
2019-03-30T12:49:22.955Z,9.93
2019-03-30T12:51:50.743Z,11.03
2019-03-30T12:54:18.984Z,12.70
2019-03-30T12:56:46.739Z,12.10
2019-03-30T12:59:14.508Z,12.00
2019-03-30T13:01:42.340Z,11.43
2019-03-30T13:04:10.079Z,10.30
2019-03-30T13:06:37.860Z,11.67
2019-03-30T13:09:06.252Z,11.23
2019-03-30T13:11:34.031Z,10.90
2019-03-30T13:14:02.103Z,12.90
2019-03-30T13:16:29.842Z,11.30
2019-03-30T13:18:57.636Z,10.27
2019-03-30T13:21:25.299Z,11.37
2019-03-30T13:23:53.216Z,12.50
2019-03-30T13:26:21.017Z,10.93
2019-03-30T13:28:48.980Z,11.70
2019-03-30T13:31:16.789Z,12.70
2019-03-30T13:33:44.562Z,12.73
2019-03-30T13:36:12.972Z,13.07
2019-03-30T13:38:40.760Z,12.57
2019-03-30T13:41:08.615Z,11.10
2019-03-30T13:43:36.531Z,11.23
2019-03-30T13:46:04.680Z,12.60
2019-03-30T13:48:32.342Z,12.73
2019-03-30T13:51:00.070Z,11.97
2019-03-30T13:53:27.715Z,12.50
2019-03-30T13:55:56.996Z,11.17
2019-03-30T13:58:25.201Z,10.60
2019-03-30T14:00:53.089Z,11.80
2019-03-30T14:03:21.101Z,11.03
2019-03-30T14:05:49.082Z,12.27
2019-03-30T14:08:16.885Z,11.67
2019-03-30T14:10:44.647Z,14.37
2019-03-30T14:13:12.539Z,14.30
2019-03-30T14:15:40.311Z,14.13
2019-03-30T14:18:08.091Z,12.60
2019-03-30T14:20:35.818Z,13.40
2019-03-30T14:23:03.607Z,10.90
2019-03-30T14:25:31.392Z,11.13
2019-03-30T14:27:59.133Z,11.33
2019-03-30T14:30:26.836Z,11.47
2019-03-30T14:32:54.579Z,11.90
2019-03-30T14:35:22.274Z,12.43
2019-03-30T14:37:49.915Z,13.07
2019-03-30T14:40:17.697Z,10.57
2019-03-30T14:42:45.498Z,11.63
2019-03-30T14:45:13.496Z,10.73
2019-03-30T14:47:41.253Z,10.47
2019-03-30T14:50:09.353Z,12.53
2019-03-30T14:52:37.126Z,10.80
2019-03-30T14:55:05.351Z,11.33
2019-03-30T14:57:33.116Z,9.43
2019-03-30T15:00:00.898Z,12.30
2019-03-30T15:02:28.728Z,10.73
2019-03-30T15:04:56.388Z,12.00
2019-03-30T15:07:25.110Z,11.60
2019-03-30T15:09:52.891Z,11.50
2019-03-30T15:12:24.723Z,12.10
2019-03-30T15:14:52.460Z,11.73
2019-03-30T15:17:20.469Z,11.33
2019-03-30T15:19:48.328Z,11.97
2019-03-30T15:22:16.144Z,11.40
2019-03-30T15:24:43.812Z,11.10
2019-03-30T15:27:11.536Z,11.30
2019-03-30T15:29:39.484Z,10.50
2019-03-30T15:32:07.300Z,11.50
2019-03-30T15:34:35.266Z,11.77
2019-03-30T15:37:03.468Z,10.23
2019-03-30T15:39:36.997Z,10.00
2019-03-30T15:42:04.791Z,9.70
2019-03-30T15:44:32.812Z,10.70
2019-03-30T15:47:00.550Z,10.23
2019-03-30T15:49:28.288Z,11.20
2019-03-30T15:51:56.468Z,10.87
2019-03-30T15:54:24.243Z,10.00
2019-03-30T15:56:52.319Z,11.20
2019-03-30T15:59:20.025Z,11.43
2019-03-30T16:01:47.915Z,12.83
2019-03-30T16:04:15.677Z,11.10
2019-03-30T16:06:43.445Z,11.60
2019-03-30T16:09:11.153Z,11.77
2019-03-30T16:11:38.940Z,12.53
2019-03-30T16:14:06.597Z,12.80
2019-03-30T16:16:34.371Z,27.10
2019-03-30T16:19:02.028Z,21.80
2019-03-30T16:21:31.425Z,20.00
2019-03-30T16:23:59.746Z,24.03
2019-03-30T16:26:40.986Z,14.83
2019-03-30T16:28:58.828Z,16.13
2019-03-30T16:31:28.432Z,16.90
2019-03-30T16:33:58.944Z,15.60
2019-03-30T16:36:30.041Z,14.90
2019-03-30T16:38:57.886Z,40.03
2019-03-30T16:41:25.635Z,47.20
2019-03-30T16:43:53.403Z,50.97
2019-03-30T16:46:21.426Z,64.53
2019-03-30T16:48:49.300Z,216.50
2019-03-30T16:51:17.901Z,69.23
2019-03-30T16:53:47.419Z,31.10
2019-03-30T16:56:15.226Z,59.33
2019-03-30T16:58:44.546Z,22.67
2019-03-30T17:01:12.345Z,48.43
2019-03-30T17:03:42.394Z,48.43
2019-03-30T17:06:10.205Z,46.03
2019-03-30T17:08:38.579Z,45.97
2019-03-30T17:11:07.026Z,20.40
2019-03-30T17:13:35.900Z,16.27
2019-03-30T17:16:06.348Z,41.03
2019-03-30T17:18:34.624Z,19.50
2019-03-30T17:21:05.035Z,23.83
2019-03-30T17:23:33.035Z,37.00
2019-03-30T17:26:00.696Z,20.80
2019-03-30T17:28:28.672Z,18.20
2019-03-30T17:30:57.117Z,19.47
2019-03-30T17:33:27.163Z,16.73
2019-03-30T17:35:55.891Z,17.87
2019-03-30T17:38:24.922Z,16.93
2019-03-30T17:40:54.449Z,16.57
2019-03-30T17:43:23.297Z,18.07
2019-03-30T17:45:51.676Z,16.97
2019-03-30T17:48:19.706Z,16.20
2019-03-30T17:50:47.832Z,17.07
2019-03-30T17:53:15.879Z,18.00
2019-03-30T17:55:43.700Z,21.60
2019-03-30T17:58:13.217Z,20.97
2019-03-30T18:00:41.476Z,18.50
2019-03-30T18:03:09.102Z,18.63
2019-03-30T18:05:36.751Z,21.50
2019-03-30T18:08:04.460Z,32.07
2019-03-30T18:10:42.543Z,30.87
2019-03-30T18:13:10.264Z,23.50
2019-03-30T18:15:58.619Z,20.50
2019-03-30T18:18:26.408Z,25.30
2019-03-30T18:20:55.298Z,22.13
2019-03-30T18:23:23.276Z,21.77
2019-03-30T18:25:51.028Z,17.83
2019-03-30T18:28:26.926Z,19.40
2019-03-30T18:30:48.384Z,17.30
2019-03-30T18:33:17.012Z,20.03
2019-03-30T18:35:45.460Z,19.63
2019-03-30T18:38:13.857Z,19.07
2019-03-30T18:40:42.124Z,24.40
2019-03-30T18:43:10.432Z,21.70
2019-03-30T18:45:38.722Z,29.30
2019-03-30T18:48:16.669Z,31.47
2019-03-30T18:50:45.850Z,23.30
2019-03-30T18:53:14.693Z,25.47
2019-03-30T18:55:42.928Z,26.50
2019-03-30T18:58:10.851Z,27.30
2019-03-30T19:00:40.537Z,33.13
2019-03-30T19:03:08.806Z,29.07
2019-03-30T19:05:36.516Z,27.43
2019-03-30T19:08:05.357Z,32.27
2019-03-30T19:10:34.273Z,31.63
2019-03-30T19:13:02.409Z,31.60
2019-03-30T19:15:33.386Z,32.00
2019-03-30T19:18:01.122Z,30.80
2019-03-30T19:20:28.893Z,27.93
2019-03-30T19:22:57.371Z,29.13
2019-03-30T19:25:25.578Z,28.80
2019-03-30T19:27:53.500Z,29.10
2019-03-30T19:30:21.679Z,28.17
2019-03-30T19:32:51.589Z,25.53
2019-03-30T19:35:19.642Z,28.57
2019-03-30T19:37:49.271Z,25.00
2019-03-30T19:40:17.557Z,23.87
2019-03-30T19:42:45.533Z,25.20
2019-03-30T19:45:13.688Z,24.93
2019-03-30T19:47:44.352Z,24.30
2019-03-30T19:50:12.511Z,26.20
2019-03-30T19:52:40.623Z,28.70
2019-03-30T19:55:09.027Z,28.60
2019-03-30T19:57:36.851Z,27.80
2019-03-30T20:00:06.351Z,32.63
2019-03-30T20:02:34.123Z,31.63
2019-03-30T20:05:01.940Z,29.70
2019-03-30T20:07:29.584Z,31.57
2019-03-30T20:09:57.596Z,32.27
2019-03-30T20:12:25.379Z,33.53
2019-03-30T20:14:53.223Z,32.53
2019-03-30T20:17:21.376Z,33.80
2019-03-30T20:19:50.911Z,30.07
2019-03-30T20:22:21.647Z,29.23
2019-03-30T20:24:49.283Z,28.90
2019-03-30T20:27:17.513Z,26.90
2019-03-30T20:29:45.330Z,29.43
2019-03-30T20:32:14.037Z,29.40
2019-03-30T20:34:41.791Z,27.80
2019-03-30T20:37:09.887Z,27.60
2019-03-30T20:39:37.999Z,26.60
2019-03-30T20:42:06.343Z,28.13
2019-03-30T20:44:36.159Z,26.87
2019-03-30T20:47:03.901Z,27.70
2019-03-30T20:49:31.660Z,26.33
2019-03-30T20:51:59.396Z,30.90
2019-03-30T20:54:27.064Z,24.77
2019-03-30T20:56:55.195Z,29.17
2019-03-30T20:59:23.228Z,35.00
2019-03-30T21:01:50.931Z,35.93
2019-03-30T21:04:18.966Z,34.40
2019-03-30T21:06:46.684Z,32.90
2019-03-30T21:09:14.463Z,33.50
2019-03-30T21:11:44.648Z,31.70
2019-03-30T21:14:12.383Z,34.73
2019-03-30T21:16:40.597Z,33.67
2019-03-30T21:19:08.719Z,32.37
2019-03-30T21:21:36.696Z,34.57
2019-03-30T21:24:05.739Z,35.10
2019-03-30T21:26:33.496Z,33.60
2019-03-30T21:29:01.676Z,33.40
2019-03-30T21:31:29.848Z,34.37
2019-03-30T21:33:57.760Z,34.47
2019-03-30T21:36:25.455Z,36.87
2019-03-30T21:38:53.360Z,35.90
2019-03-30T21:41:23.564Z,36.30
2019-03-30T21:43:51.467Z,35.37
2019-03-30T21:46:20.309Z,34.00
2019-03-30T21:48:48.075Z,36.10
2019-03-30T21:51:17.994Z,34.93
2019-03-30T21:53:46.237Z,36.10
2019-03-30T21:56:14.119Z,37.33
2019-03-30T21:58:42.320Z,33.53
2019-03-30T22:01:10.107Z,32.37
2019-03-30T22:03:37.847Z,34.70
2019-03-30T22:06:06.004Z,32.20
2019-03-30T22:08:35.820Z,32.97
2019-03-30T22:11:03.618Z,38.30
2019-03-30T22:13:31.850Z,36.80
2019-03-30T22:16:00.584Z,38.23
2019-03-30T22:18:28.743Z,39.87
2019-03-30T22:20:56.386Z,37.43
2019-03-30T22:23:24.191Z,39.17
2019-03-30T22:25:52.018Z,38.20
2019-03-30T22:28:21.675Z,37.77
2019-03-30T22:30:49.319Z,35.57
2019-03-30T22:33:19.197Z,37.70
2019-03-30T22:35:47.192Z,38.07
2019-03-30T22:38:14.859Z,36.90
2019-03-30T22:40:42.621Z,36.33
2019-03-30T22:43:10.641Z,36.27
2019-03-30T22:45:38.339Z,45.70
2019-03-30T22:48:06.178Z,42.20
2019-03-30T22:50:33.980Z,43.60
2019-03-30T22:53:01.972Z,38.47
2019-03-30T22:55:29.739Z,37.23
2019-03-30T22:57:57.432Z,39.50
2019-03-30T23:00:45.071Z,40.87
2019-03-30T23:03:13.348Z,39.43
2019-03-30T23:05:41.083Z,40.67
2019-03-30T23:08:09.075Z,39.03
2019-03-30T23:10:36.860Z,40.73
2019-03-30T23:13:04.572Z,42.17
2019-03-30T23:15:32.223Z,41.37
2019-03-30T23:18:00.029Z,43.27
2019-03-30T23:20:27.810Z,43.80
2019-03-30T23:22:55.569Z,40.87
2019-03-30T23:25:23.352Z,41.30
2019-03-30T23:27:51.190Z,39.00
2019-03-30T23:30:18.939Z,43.20
2019-03-30T23:32:46.705Z,46.07
2019-03-30T23:35:14.415Z,44.60
2019-03-30T23:37:42.192Z,42.23
2019-03-30T23:40:09.983Z,40.63
2019-03-30T23:42:38.016Z,38.00
2019-03-30T23:45:05.952Z,39.93
2019-03-30T23:47:33.628Z,32.77
2019-03-30T23:50:01.389Z,33.10
2019-03-30T23:52:29.082Z,31.90
2019-03-30T23:54:56.904Z,34.50
2019-03-30T23:57:24.603Z,36.50
2019-03-30T23:59:52.409Z,35.93
